createdAt,value
2023-02-07T00:02:15.283Z,100790.81
2023-02-07T00:05:17.718Z,100795.03
2023-02-07T00:08:21.666Z,100810.75
2023-02-07T00:11:24.079Z,100802.09
2023-02-07T00:14:25.711Z,100800.13
2023-02-07T00:17:30.281Z,100791.38
2023-02-07T00:20:31.951Z,100784.91
2023-02-07T00:23:33.855Z,100792.34
2023-02-07T00:26:35.543Z,100788.09
2023-02-07T00:29:37.349Z,100781.22
2023-02-07T00:32:40.798Z,100776.88
2023-02-07T00:35:42.790Z,100785.69
2023-02-07T00:38:44.783Z,100776.84
2023-02-07T00:41:46.398Z,100767.06
2023-02-07T00:44:48.063Z,100765.06
2023-02-07T00:47:51.099Z,100748.44
2023-02-07T00:50:53.089Z,100757.22
2023-02-07T00:53:55.155Z,100749.28
2023-02-07T00:56:56.896Z,100751.00
2023-02-07T00:59:58.601Z,100747.50
2023-02-07T01:03:01.824Z,100741.53
2023-02-07T01:06:03.919Z,100741.38
2023-02-07T01:09:06.196Z,100748.28
2023-02-07T01:12:08.021Z,100743.72
2023-02-07T01:15:10.186Z,100745.41
2023-02-07T01:18:13.536Z,100738.50
2023-02-07T01:21:15.849Z,100732.47
2023-02-07T01:24:17.387Z,100742.66
2023-02-07T01:27:18.991Z,100727.53
2023-02-07T01:30:20.761Z,100721.56
2023-02-07T01:33:23.878Z,100723.41
2023-02-07T01:36:26.143Z,100721.72
2023-02-07T01:39:27.819Z,100729.63
2023-02-07T01:42:30.150Z,100719.88
2023-02-07T01:45:33.820Z,100715.50
2023-02-07T01:48:37.107Z,100727.75
2023-02-07T01:51:41.149Z,100717.66
2023-02-07T01:54:45.420Z,100726.91
2023-02-07T01:57:48.857Z,100729.53
2023-02-07T02:00:51.329Z,100724.03
2023-02-07T02:03:55.792Z,100723.09
2023-02-07T02:06:57.817Z,100723.34
2023-02-07T02:09:59.796Z,100715.50
2023-02-07T02:13:09.586Z,100716.25
2023-02-07T02:16:16.973Z,100724.88
2023-02-07T02:19:32.376Z,100724.81
2023-02-07T02:22:58.096Z,100721.31
2023-02-07T02:26:18.512Z,100733.50
2023-02-07T02:29:31.962Z,100728.38
2023-02-07T02:32:48.831Z,100728.44
2023-02-07T02:35:57.201Z,100732.13
2023-02-07T02:39:02.966Z,100724.34
2023-02-07T02:42:10.013Z,100715.50
2023-02-07T02:45:13.545Z,100723.22
2023-02-07T02:48:16.116Z,100717.88
2023-02-07T02:51:19.116Z,100713.41
2023-02-07T02:54:28.263Z,100712.41
2023-02-07T02:57:41.606Z,100718.59
2023-02-07T03:00:59.971Z,100712.22
2023-02-07T03:04:07.577Z,100712.94
2023-02-07T03:07:19.440Z,100716.78
2023-02-07T03:10:25.736Z,100713.16
2023-02-07T03:13:32.369Z,100712.97
2023-02-07T03:16:39.683Z,100705.97
2023-02-07T03:19:45.425Z,100707.09
2023-02-07T03:22:51.113Z,100709.06
2023-02-07T03:25:54.501Z,100711.41
2023-02-07T03:28:58.006Z,100708.53
2023-02-07T03:32:02.545Z,100707.75
2023-02-07T03:35:06.866Z,100706.84
2023-02-07T03:38:12.259Z,100702.25
2023-02-07T03:41:18.282Z,100705.59
2023-02-07T03:44:21.629Z,100696.66
2023-02-07T03:47:23.305Z,100689.53
2023-02-07T03:50:24.956Z,100707.25
2023-02-07T03:53:27.945Z,100699.09
2023-02-07T03:56:31.877Z,100702.44
2023-02-07T03:59:33.446Z,100704.50
2023-02-07T04:02:35.735Z,100700.16
2023-02-07T04:05:37.504Z,100702.66
2023-02-07T04:08:40.571Z,100702.72
2023-02-07T04:11:42.227Z,100706.16
2023-02-07T04:14:43.792Z,100704.38
2023-02-07T04:17:45.439Z,100705.28
2023-02-07T04:20:47.243Z,100709.66
2023-02-07T04:23:50.235Z,100693.31
2023-02-07T04:26:52.183Z,100693.38
2023-02-07T04:29:53.944Z,100689.09
2023-02-07T04:32:55.564Z,100696.91
2023-02-07T04:35:57.431Z,100698.47
2023-02-07T04:39:00.471Z,100716.59
2023-02-07T04:42:02.012Z,100705.09
2023-02-07T04:45:03.779Z,100701.38
2023-02-07T04:48:05.678Z,100701.38
2023-02-07T04:51:07.690Z,100713.75
2023-02-07T04:54:10.934Z,100715.41
2023-02-07T04:57:12.823Z,100716.38
2023-02-07T05:00:14.834Z,100720.78
2023-02-07T05:03:16.379Z,100725.09
2023-02-07T05:06:18.053Z,100716.22
2023-02-07T05:09:21.216Z,100721.84
2023-02-07T05:12:22.970Z,100727.13
2023-02-07T05:15:24.873Z,100720.63
2023-02-07T05:18:26.436Z,100716.09
2023-02-07T05:21:28.057Z,100723.81
2023-02-07T05:24:31.200Z,100712.50
2023-02-07T05:27:32.987Z,100717.56
2023-02-07T05:30:34.693Z,100724.50
2023-02-07T05:33:36.391Z,100713.88
2023-02-07T05:36:38.134Z,100719.03
2023-02-07T05:39:41.076Z,100717.50
2023-02-07T05:42:42.647Z,100719.59
2023-02-07T05:45:45.838Z,100718.53
2023-02-07T05:48:47.626Z,100712.19
2023-02-07T05:51:49.101Z,100711.59
2023-02-07T05:54:52.426Z,100719.13
2023-02-07T05:57:54.421Z,100722.63
2023-02-07T06:00:56.599Z,100722.69
2023-02-07T06:03:58.124Z,100720.81
2023-02-07T06:06:59.834Z,100729.66
2023-02-07T06:10:03.020Z,100734.81
2023-02-07T06:13:04.571Z,100732.78
2023-02-07T06:16:07.513Z,100739.06
2023-02-07T06:19:10.174Z,100729.94
2023-02-07T06:22:12.149Z,100730.28
2023-02-07T06:25:15.182Z,100729.41
2023-02-07T06:28:16.761Z,100725.97
2023-02-07T06:31:18.488Z,100731.94
2023-02-07T06:34:20.291Z,100747.59
2023-02-07T06:37:21.850Z,100747.44
2023-02-07T06:40:25.047Z,100750.94
2023-02-07T06:43:26.750Z,100750.16
2023-02-07T06:46:28.520Z,100751.94
2023-02-07T06:49:30.069Z,100756.75
2023-02-07T06:52:31.656Z,100753.44
2023-02-07T06:55:37.330Z,100749.22
2023-02-07T06:58:39.212Z,100758.13
2023-02-07T07:01:41.563Z,100751.94
2023-02-07T07:04:43.207Z,100747.81
2023-02-07T07:07:44.907Z,100755.63
2023-02-07T07:10:48.265Z,100756.63
2023-02-07T07:13:50.203Z,100766.25
2023-02-07T07:16:51.658Z,100774.06
2023-02-07T07:19:53.282Z,100772.28
2023-02-07T07:22:54.972Z,100782.16
2023-02-07T07:25:58.085Z,100778.50
2023-02-07T07:29:00.247Z,100778.41
2023-02-07T07:32:02.263Z,100780.47
2023-02-07T07:35:04.226Z,100790.78
2023-02-07T07:38:06.095Z,100793.75
2023-02-07T07:41:10.326Z,100803.31
2023-02-07T07:44:12.211Z,100802.56
2023-02-07T07:47:13.988Z,100792.31
2023-02-07T07:50:15.604Z,100801.31
2023-02-07T07:53:18.371Z,100798.81
2023-02-07T07:56:21.922Z,100798.94
2023-02-07T07:59:24.434Z,100800.03
2023-02-07T08:02:26.487Z,100802.31
2023-02-07T08:05:28.065Z,100794.97
2023-02-07T08:08:29.847Z,100800.97
2023-02-07T08:11:32.892Z,100796.59
2023-02-07T08:14:40.730Z,100802.25
2023-02-07T08:17:42.373Z,100805.16
2023-02-07T08:20:44.128Z,100808.53
2023-02-07T08:23:45.809Z,100802.47
2023-02-07T08:26:48.759Z,100813.31
2023-02-07T08:29:50.346Z,100809.28
2023-02-07T08:32:52.063Z,100812.75
2023-02-07T08:35:53.686Z,100808.34
2023-02-07T08:38:55.317Z,100811.31
2023-02-07T08:41:58.417Z,100804.44
2023-02-07T08:45:00.084Z,100795.22
2023-02-07T08:48:01.661Z,100808.09
2023-02-07T08:51:05.886Z,100802.47
2023-02-07T08:54:07.432Z,100797.34
2023-02-07T08:57:10.330Z,100790.72
2023-02-07T09:00:12.518Z,100786.63
2023-02-07T09:03:15.359Z,100781.69
2023-02-07T09:06:17.119Z,100776.22
2023-02-07T09:09:18.852Z,100783.56
2023-02-07T09:12:22.107Z,100771.22
2023-02-07T09:15:23.702Z,100779.47
2023-02-07T09:18:25.906Z,100767.81
2023-02-07T09:21:27.681Z,100778.16
2023-02-07T09:24:29.298Z,100773.50
2023-02-07T09:27:32.559Z,100777.00
2023-02-07T09:30:34.182Z,100772.22
2023-02-07T09:33:35.889Z,100762.88
2023-02-07T09:36:37.636Z,100769.00
2023-02-07T09:39:41.387Z,100770.78
2023-02-07T09:42:48.902Z,100775.94
2023-02-07T09:45:54.311Z,100788.66
2023-02-07T09:49:01.147Z,100784.03
2023-02-07T09:52:04.473Z,100784.97
2023-02-07T09:55:06.990Z,100784.19
2023-02-07T09:58:14.015Z,100786.91
2023-02-07T10:01:17.250Z,100787.97
2023-02-07T10:04:30.156Z,100788.03
2023-02-07T10:07:32.856Z,100788.31
2023-02-07T10:10:39.333Z,100783.06
2023-02-07T10:13:49.649Z,100779.94
2023-02-07T10:17:06.481Z,100782.88
2023-02-07T10:20:25.057Z,100783.81
2023-02-07T10:23:34.977Z,100769.53
2023-02-07T10:26:38.205Z,100769.81
2023-02-07T10:29:47.907Z,100770.84
2023-02-07T10:32:50.711Z,100766.19
2023-02-07T10:35:53.723Z,100769.53
2023-02-07T10:39:09.393Z,100768.25
2023-02-07T10:42:15.167Z,100778.34
2023-02-07T10:45:18.244Z,100781.31
2023-02-07T10:48:20.105Z,100779.22
2023-02-07T10:51:25.548Z,100779.97
2023-02-07T10:54:27.998Z,100784.13
2023-02-07T10:57:30.529Z,100775.25
2023-02-07T11:00:34.456Z,100766.16
2023-02-07T11:03:39.106Z,100755.44
2023-02-07T11:06:40.971Z,100757.13
2023-02-07T11:09:43.827Z,100761.22
2023-02-07T11:12:46.668Z,100763.09
2023-02-07T11:15:52.456Z,100758.97
2023-02-07T11:18:57.333Z,100753.06
2023-02-07T11:22:07.406Z,100754.22
2023-02-07T11:25:09.224Z,100745.75
2023-02-07T11:28:17.795Z,100741.38
2023-02-07T11:31:27.559Z,100743.97
2023-02-07T11:34:31.049Z,100743.28
2023-02-07T11:37:33.516Z,100753.81
2023-02-07T11:40:37.402Z,100748.84
2023-02-07T11:43:51.215Z,100739.63
2023-02-07T11:46:56.813Z,100737.81
2023-02-07T11:50:00.186Z,100735.78
2023-02-07T11:53:04.099Z,100742.19
2023-02-07T11:56:05.897Z,100740.34
2023-02-07T11:59:11.258Z,100740.44
2023-02-07T12:02:17.161Z,100741.47
2023-02-07T12:05:20.917Z,100744.22
2023-02-07T12:08:24.316Z,100735.78
2023-02-07T12:11:28.512Z,100739.38
2023-02-07T12:14:33.872Z,100737.59
2023-02-07T12:17:39.804Z,100737.38
2023-02-07T12:28:34.755Z,100728.63
2023-02-07T12:31:51.265Z,100730.41
2023-02-07T12:34:57.507Z,100725.50
2023-02-07T12:38:01.849Z,100725.44
2023-02-07T12:41:12.728Z,100737.81
2023-02-07T12:44:21.782Z,100729.03
2023-02-07T12:47:27.396Z,100727.13
2023-02-07T12:50:46.183Z,100721.28
2023-02-07T12:54:04.140Z,100716.03
2023-02-07T12:57:09.566Z,100715.50
2023-02-07T13:00:16.248Z,100705.66
2023-02-07T13:03:23.562Z,100702.22
2023-02-07T13:06:32.183Z,100698.94
2023-02-07T13:09:37.245Z,100690.00
2023-02-07T13:12:42.460Z,100698.78
2023-02-07T13:15:48.543Z,100703.28
2023-02-07T13:18:54.645Z,100701.75
2023-02-07T13:22:00.322Z,100699.41
2023-02-07T13:25:02.958Z,100693.97
2023-02-07T13:28:06.958Z,100693.69
2023-02-07T13:31:11.216Z,100684.88
2023-02-07T13:34:15.985Z,100692.16
2023-02-07T13:37:20.204Z,100697.53
2023-02-07T13:40:28.262Z,100685.75
2023-02-07T13:43:36.613Z,100686.31
2023-02-07T13:46:58.232Z,100688.03
2023-02-07T13:50:02.463Z,100692.25
2023-02-07T13:53:13.783Z,100686.28
2023-02-07T13:56:45.558Z,100691.69
2023-02-07T14:00:02.284Z,100682.91
2023-02-07T14:03:20.256Z,100690.84
2023-02-07T14:06:23.129Z,100695.09
2023-02-07T14:09:32.657Z,100691.50
2023-02-07T14:12:35.396Z,100693.38
2023-02-07T14:15:54.796Z,100696.84
2023-02-07T14:18:57.487Z,100691.63
2023-02-07T14:22:13.832Z,100680.28
2023-02-07T14:25:22.333Z,100680.28
2023-02-07T14:28:32.437Z,100680.22
2023-02-07T14:31:34.399Z,100684.66
2023-02-07T14:34:57.513Z,100693.53
2023-02-07T14:38:17.186Z,100693.59
2023-02-07T14:41:27.340Z,100698.72
2023-02-07T14:44:32.672Z,100709.16
2023-02-07T14:47:37.015Z,100704.69
2023-02-07T14:50:39.427Z,100702.13
2023-02-07T14:53:42.713Z,100699.38
2023-02-07T14:56:48.572Z,100699.13
2023-02-07T14:59:56.519Z,100707.00
2023-02-07T15:02:58.970Z,100698.94
2023-02-07T15:06:02.374Z,100696.22
2023-02-07T15:09:04.347Z,100698.88
2023-02-07T15:12:26.829Z,100697.97
2023-02-07T15:15:30.238Z,100694.28
2023-02-07T15:18:33.605Z,100694.13
2023-02-07T15:21:38.680Z,100698.44
2023-02-07T15:24:51.050Z,100702.72
2023-02-07T15:28:04.442Z,100701.66
2023-02-07T15:31:11.853Z,100711.22
2023-02-07T15:34:14.927Z,100711.03
2023-02-07T15:37:19.509Z,100707.34
2023-02-07T15:40:24.860Z,100698.47
2023-02-07T15:43:30.946Z,100690.44
2023-02-07T15:46:46.466Z,100692.00
2023-02-07T15:49:58.097Z,100690.13
2023-02-07T15:53:00.921Z,100693.50
2023-02-07T15:56:04.904Z,100690.66
2023-02-07T15:59:10.889Z,100683.53
2023-02-07T16:02:19.886Z,100677.22
2023-02-07T16:05:22.708Z,100678.78
2023-02-07T16:08:36.423Z,100676.03
2023-02-07T16:11:39.957Z,100676.72
2023-02-07T16:14:43.018Z,100678.28
2023-02-07T16:17:44.890Z,100680.72
2023-02-07T16:20:46.679Z,100675.34
2023-02-07T16:23:49.888Z,100684.03
2023-02-07T16:26:51.838Z,100686.69
2023-02-07T16:29:55.315Z,100686.44
2023-02-07T16:32:57.178Z,100692.50
2023-02-07T16:35:59.180Z,100691.41
2023-02-07T16:39:01.250Z,100689.28
2023-02-07T16:42:05.309Z,100694.19
2023-02-07T16:45:15.754Z,100702.09
2023-02-07T16:48:17.501Z,100697.66
2023-02-07T16:51:19.201Z,100695.03
2023-02-07T16:54:21.171Z,100699.38
2023-02-07T16:57:23.227Z,100693.31
2023-02-07T17:00:29.026Z,100697.63
2023-02-07T17:03:30.883Z,100699.97
2023-02-07T17:06:32.584Z,100701.25
2023-02-07T17:09:34.242Z,100701.88
2023-02-07T17:12:35.959Z,100706.13
2023-02-07T17:15:39.023Z,100696.44
2023-02-07T17:18:40.873Z,100699.13
2023-02-07T17:21:42.908Z,100700.81
2023-02-07T17:24:44.772Z,100703.44
2023-02-07T17:27:47.042Z,100705.22
2023-02-07T17:30:50.693Z,100703.38
2023-02-07T17:33:52.810Z,100705.03
2023-02-07T17:36:54.818Z,100701.41
2023-02-07T17:39:56.397Z,100704.78
2023-02-07T17:42:58.039Z,100714.44
2023-02-07T17:46:01.710Z,100712.59
2023-02-07T17:49:03.669Z,100709.69
2023-02-07T17:52:08.097Z,100713.91
2023-02-07T17:55:09.692Z,100708.66
2023-02-07T17:58:18.917Z,100711.50
2023-02-07T18:01:22.237Z,100704.44
2023-02-07T18:04:23.945Z,100706.94
2023-02-07T18:07:27.902Z,100710.44
2023-02-07T18:10:31.693Z,100708.66
2023-02-07T18:13:33.603Z,100707.69
2023-02-07T18:16:36.668Z,100701.53
2023-02-07T18:19:38.451Z,100703.19
2023-02-07T18:22:40.037Z,100696.22
2023-02-07T18:25:46.279Z,100697.00
2023-02-07T18:28:48.132Z,100705.53
2023-02-07T18:31:51.377Z,100696.59
2023-02-07T18:34:53.274Z,100702.75
2023-02-07T18:37:55.222Z,100704.16
2023-02-07T18:40:57.312Z,100703.03
2023-02-07T18:43:59.107Z,100700.28
2023-02-07T18:47:02.192Z,100696.78
2023-02-07T18:50:04.191Z,100696.78
2023-02-07T18:53:05.876Z,100704.78
2023-02-07T18:56:10.116Z,100702.06
2023-02-07T18:59:11.887Z,100708.19
2023-02-07T19:02:15.063Z,100709.19
2023-02-07T19:05:16.943Z,100698.72
2023-02-07T19:08:18.770Z,100702.81
2023-02-07T19:11:21.358Z,100709.34
2023-02-07T19:14:23.960Z,100712.63
2023-02-07T19:17:28.172Z,100712.53
2023-02-07T19:23:40.289Z,100719.81
2023-02-07T19:26:42.275Z,100717.16
2023-02-07T19:29:44.640Z,100714.22
2023-02-07T19:32:49.334Z,100701.72
2023-02-07T19:35:51.120Z,100705.88
2023-02-07T19:38:54.205Z,100700.47
2023-02-07T19:41:56.227Z,100699.50
2023-02-07T19:44:57.969Z,100709.25
2023-02-07T19:48:01.078Z,100713.78
2023-02-07T19:51:03.940Z,100706.03
2023-02-07T19:54:05.747Z,100709.41
2023-02-07T19:57:07.319Z,100701.22
2023-02-07T20:00:10.628Z,100698.16
2023-02-07T20:03:13.744Z,100695.50
2023-02-07T20:06:15.626Z,100696.94
2023-02-07T20:09:17.912Z,100696.28
2023-02-07T20:12:19.942Z,100690.03
2023-02-07T20:15:21.813Z,100707.38
2023-02-07T20:18:24.864Z,100703.97
2023-02-07T20:21:27.341Z,100696.16
2023-02-07T20:24:29.342Z,100684.97
2023-02-07T20:27:31.224Z,100689.25
2023-02-07T20:30:32.851Z,100688.16
2023-02-07T20:33:36.441Z,100693.31
2023-02-07T20:36:41.354Z,100685.44
2023-02-07T20:39:42.995Z,100681.31
2023-02-07T20:42:44.814Z,100684.16
2023-02-07T20:45:46.505Z,100687.69
2023-02-07T20:48:49.721Z,100691.22
2023-02-07T20:51:51.937Z,100693.84
2023-02-07T20:54:53.893Z,100696.56
2023-02-07T20:57:55.669Z,100704.25
2023-02-07T21:00:57.912Z,100703.66
2023-02-07T21:04:03.065Z,100692.13
2023-02-07T21:07:05.270Z,100695.69
2023-02-07T21:10:07.528Z,100694.72
2023-02-07T21:13:09.294Z,100692.59
2023-02-07T21:16:11.092Z,100693.31
2023-02-07T21:19:14.938Z,100688.06
2023-02-07T21:22:17.037Z,100694.38
2023-02-07T21:25:18.614Z,100701.13
2023-02-07T21:28:20.362Z,100696.56
2023-02-07T21:31:22.275Z,100695.69
2023-02-07T21:34:25.687Z,100701.75
2023-02-07T21:37:27.313Z,100700.03
2023-02-07T21:40:28.935Z,100694.16
2023-02-07T21:43:30.754Z,100695.31
2023-02-07T21:46:33.815Z,100693.28
2023-02-07T21:49:38.313Z,100695.72
2023-02-07T21:52:40.150Z,100690.03
2023-02-07T21:55:42.194Z,100695.03
2023-02-07T21:58:44.182Z,100693.34
2023-02-07T22:01:46.685Z,100692.56
2023-02-07T22:04:49.809Z,100686.38
2023-02-07T22:07:51.399Z,100695.16
2023-02-07T22:10:53.187Z,100695.31
2023-02-07T22:13:55.370Z,100697.69
2023-02-07T22:16:57.733Z,100700.41
2023-02-07T22:20:00.713Z,100701.63
2023-02-07T22:23:02.454Z,100697.47
2023-02-07T22:26:05.144Z,100689.44
2023-02-07T22:29:07.412Z,100698.97
2023-02-07T22:32:09.177Z,100705.13
2023-02-07T22:35:12.163Z,100699.75
2023-02-07T22:38:14.523Z,100712.06
2023-02-07T22:41:16.517Z,100697.41
2023-02-07T22:44:18.175Z,100701.91
2023-02-07T22:47:19.840Z,100703.16
2023-02-07T22:50:23.278Z,100708.06
2023-02-07T22:53:24.935Z,100706.09
2023-02-07T22:56:26.849Z,100699.38
2023-02-07T22:59:28.419Z,100697.03
2023-02-07T23:02:30.342Z,100696.00
2023-02-07T23:05:38.160Z,100698.38
2023-02-07T23:08:39.697Z,100695.56
2023-02-07T23:11:41.285Z,100691.13
2023-02-07T23:14:42.860Z,100688.56
2023-02-07T23:17:46.701Z,100693.00
2023-02-07T23:20:50.398Z,100694.03
2023-02-07T23:23:52.150Z,100695.91
2023-02-07T23:26:53.835Z,100695.13
2023-02-07T23:29:55.462Z,100703.94
2023-02-07T23:32:59.593Z,100701.19
2023-02-07T23:36:03.372Z,100700.00
2023-02-07T23:39:05.469Z,100702.28
2023-02-07T23:42:10.398Z,100704.88
2023-02-07T23:45:11.975Z,100704.81
2023-02-07T23:48:13.665Z,100708.06
2023-02-07T23:51:16.625Z,100701.03
2023-02-07T23:54:18.164Z,100701.56
2023-02-07T23:57:21.896Z,100696.41
